sensor_id;sensor_type;location;lat;lon;timestamp;temperature;humidity
2757;DHT22;1386;50.862;6.494;2023-09-18T00:00:30;20.40;99.90
2757;DHT22;1386;50.862;6.494;2023-09-18T00:02:58;20.40;99.90
2757;DHT22;1386;50.862;6.494;2023-09-18T00:05:28;20.40;99.90
2757;DHT22;1386;50.862;6.494;2023-09-18T00:07:55;20.40;99.90
2757;DHT22;1386;50.862;6.494;2023-09-18T00:10:25;20.40;99.90
2757;DHT22;1386;50.862;6.494;2023-09-18T00:12:54;20.30;99.90
2757;DHT22;1386;50.862;6.494;2023-09-18T00:15:21;20.30;99.90
2757;DHT22;1386;50.862;6.494;2023-09-18T00:17:48;20.30;99.90
2757;DHT22;1386;50.862;6.494;2023-09-18T00:20:15;20.30;99.90
2757;DHT22;1386;50.862;6.494;2023-09-18T00:22:43;20.30;99.90
2757;DHT22;1386;50.862;6.494;2023-09-18T00:25:10;20.20;99.90
2757;DHT22;1386;50.862;6.494;2023-09-18T00:27:38;20.20;99.90
2757;DHT22;1386;50.862;6.494;2023-09-18T00:30:06;20.20;99.90
2757;DHT22;1386;50.862;6.494;2023-09-18T00:32:33;20.20;99.90
2757;DHT22;1386;50.862;6.494;2023-09-18T00:35:00;20.20;99.90
2757;DHT22;1386;50.862;6.494;2023-09-18T00:37:28;20.20;99.90
2757;DHT22;1386;50.862;6.494;2023-09-18T00:39:54;20.20;99.90
2757;DHT22;1386;50.862;6.494;2023-09-18T00:42:21;20.20;99.90
2757;DHT22;1386;50.862;6.494;2023-09-18T00:44:49;20.10;99.90
2757;DHT22;1386;50.862;6.494;2023-09-18T00:47:17;20.10;99.90
2757;DHT22;1386;50.862;6.494;2023-09-18T00:49:47;20.10;99.90
2757;DHT22;1386;50.862;6.494;2023-09-18T00:52:15;20.10;99.90
2757;DHT22;1386;50.862;6.494;2023-09-18T00:54:43;20.00;99.90
2757;DHT22;1386;50.862;6.494;2023-09-18T00:57:11;20.00;99.90
2757;DHT22;1386;50.862;6.494;2023-09-18T00:59:38;20.00;99.90
2757;DHT22;1386;50.862;6.494;2023-09-18T01:02:07;20.00;99.90
2757;DHT22;1386;50.862;6.494;2023-09-18T01:04:34;19.90;99.90
2757;DHT22;1386;50.862;6.494;2023-09-18T01:07:02;20.00;99.90
2757;DHT22;1386;50.862;6.494;2023-09-18T01:09:29;20.00;99.90
2757;DHT22;1386;50.862;6.494;2023-09-18T01:12:03;20.00;99.90
2757;DHT22;1386;50.862;6.494;2023-09-18T01:14:36;20.00;99.90
2757;DHT22;1386;50.862;6.494;2023-09-18T01:17:04;20.00;99.90
2757;DHT22;1386;50.862;6.494;2023-09-18T01:19:42;20.00;99.90
2757;DHT22;1386;50.862;6.494;2023-09-18T01:22:10;20.00;99.90
2757;DHT22;1386;50.862;6.494;2023-09-18T01:24:39;20.00;99.90
2757;DHT22;1386;50.862;6.494;2023-09-18T01:27:08;20.00;99.90
2757;DHT22;1386;50.862;6.494;2023-09-18T01:29:35;19.90;99.90
2757;DHT22;1386;50.862;6.494;2023-09-18T01:32:03;19.90;99.90
2757;DHT22;1386;50.862;6.494;2023-09-18T01:34:33;19.90;99.90
2757;DHT22;1386;50.862;6.494;2023-09-18T01:37:02;19.80;99.90
2757;DHT22;1386;50.862;6.494;2023-09-18T01:39:31;19.80;99.90
2757;DHT22;1386;50.862;6.494;2023-09-18T01:42:01;19.80;99.90
2757;DHT22;1386;50.862;6.494;2023-09-18T01:44:28;19.80;99.90
2757;DHT22;1386;50.862;6.494;2023-09-18T01:47:00;19.80;99.90
2757;DHT22;1386;50.862;6.494;2023-09-18T01:49:29;19.80;99.90
2757;DHT22;1386;50.862;6.494;2023-09-18T01:51:56;19.80;99.90
2757;DHT22;1386;50.862;6.494;2023-09-18T01:54:23;19.80;99.90
2757;DHT22;1386;50.862;6.494;2023-09-18T01:56:50;19.80;99.90
2757;DHT22;1386;50.862;6.494;2023-09-18T01:59:19;19.90;99.90
2757;DHT22;1386;50.862;6.494;2023-09-18T02:01:47;19.90;99.90
2757;DHT22;1386;50.862;6.494;2023-09-18T02:04:14;19.80;99.90
2757;DHT22;1386;50.862;6.494;2023-09-18T02:06:41;19.80;99.90
2757;DHT22;1386;50.862;6.494;2023-09-18T02:09:07;19.80;99.90
2757;DHT22;1386;50.862;6.494;2023-09-18T02:11:36;19.80;99.90
2757;DHT22;1386;50.862;6.494;2023-09-18T02:14:03;19.80;99.90
2757;DHT22;1386;50.862;6.494;2023-09-18T02:16:32;19.80;99.90
2757;DHT22;1386;50.862;6.494;2023-09-18T02:18:59;19.80;99.90
2757;DHT22;1386;50.862;6.494;2023-09-18T02:21:26;19.80;99.90
2757;DHT22;1386;50.862;6.494;2023-09-18T02:23:53;19.90;99.90
2757;DHT22;1386;50.862;6.494;2023-09-18T02:26:21;20.00;99.90
2757;DHT22;1386;50.862;6.494;2023-09-18T02:28:48;20.00;99.90
2757;DHT22;1386;50.862;6.494;2023-09-18T02:31:15;20.10;99.90
2757;DHT22;1386;50.862;6.494;2023-09-18T02:33:44;20.10;99.90
2757;DHT22;1386;50.862;6.494;2023-09-18T02:36:12;20.20;99.90
2757;DHT22;1386;50.862;6.494;2023-09-18T02:38:39;20.20;99.90
2757;DHT22;1386;50.862;6.494;2023-09-18T02:41:06;20.20;99.90
2757;DHT22;1386;50.862;6.494;2023-09-18T02:43:32;20.20;99.90
2757;DHT22;1386;50.862;6.494;2023-09-18T02:45:59;20.20;99.90
2757;DHT22;1386;50.862;6.494;2023-09-18T02:48:26;20.20;99.90
2757;DHT22;1386;50.862;6.494;2023-09-18T02:50:54;20.30;99.90
2757;DHT22;1386;50.862;6.494;2023-09-18T02:53:23;20.30;99.90
2757;DHT22;1386;50.862;6.494;2023-09-18T02:55:52;20.30;99.90
2757;DHT22;1386;50.862;6.494;2023-09-18T02:58:20;20.20;99.90
2757;DHT22;1386;50.862;6.494;2023-09-18T03:00:48;20.20;99.90
2757;DHT22;1386;50.862;6.494;2023-09-18T03:03:15;20.20;99.90
2757;DHT22;1386;50.862;6.494;2023-09-18T03:05:43;20.20;99.90
2757;DHT22;1386;50.862;6.494;2023-09-18T03:08:14;20.20;99.90
2757;DHT22;1386;50.862;6.494;2023-09-18T03:10:42;20.30;99.90
2757;DHT22;1386;50.862;6.494;2023-09-18T03:13:11;20.30;99.90
2757;DHT22;1386;50.862;6.494;2023-09-18T03:15:38;20.30;99.90
2757;DHT22;1386;50.862;6.494;2023-09-18T03:18:06;20.30;99.90
2757;DHT22;1386;50.862;6.494;2023-09-18T03:20:33;20.40;99.90
2757;DHT22;1386;50.862;6.494;2023-09-18T03:23:02;20.40;99.90
2757;DHT22;1386;50.862;6.494;2023-09-18T03:25:30;20.40;99.90
2757;DHT22;1386;50.862;6.494;2023-09-18T03:27:57;20.40;99.90
2757;DHT22;1386;50.862;6.494;2023-09-18T03:30:25;20.40;99.90
2757;DHT22;1386;50.862;6.494;2023-09-18T03:32:52;20.40;99.90
2757;DHT22;1386;50.862;6.494;2023-09-18T03:35:20;20.40;99.90
2757;DHT22;1386;50.862;6.494;2023-09-18T03:37:48;20.30;99.90
2757;DHT22;1386;50.862;6.494;2023-09-18T03:40:16;20.30;99.90
2757;DHT22;1386;50.862;6.494;2023-09-18T03:42:44;20.30;99.90
2757;DHT22;1386;50.862;6.494;2023-09-18T03:45:12;20.30;99.90
2757;DHT22;1386;50.862;6.494;2023-09-18T03:47:40;20.30;99.90
2757;DHT22;1386;50.862;6.494;2023-09-18T03:50:08;20.30;99.90
2757;DHT22;1386;50.862;6.494;2023-09-18T03:52:36;20.30;99.90
2757;DHT22;1386;50.862;6.494;2023-09-18T03:55:04;20.30;99.90
2757;DHT22;1386;50.862;6.494;2023-09-18T03:57:31;20.30;99.90
2757;DHT22;1386;50.862;6.494;2023-09-18T04:00:00;20.30;99.90
2757;DHT22;1386;50.862;6.494;2023-09-18T04:02:27;20.20;99.90
2757;DHT22;1386;50.862;6.494;2023-09-18T04:04:53;20.20;99.90
2757;DHT22;1386;50.862;6.494;2023-09-18T04:07:21;20.20;99.90
2757;DHT22;1386;50.862;6.494;2023-09-18T04:09:47;20.20;99.90
2757;DHT22;1386;50.862;6.494;2023-09-18T04:12:14;20.10;99.90
2757;DHT22;1386;50.862;6.494;2023-09-18T04:14:42;20.10;99.90
2757;DHT22;1386;50.862;6.494;2023-09-18T04:17:10;20.10;99.90
2757;DHT22;1386;50.862;6.494;2023-09-18T04:19:37;20.10;99.90
2757;DHT22;1386;50.862;6.494;2023-09-18T04:22:04;20.10;99.90
2757;DHT22;1386;50.862;6.494;2023-09-18T04:24:31;20.00;99.90
2757;DHT22;1386;50.862;6.494;2023-09-18T04:26:57;20.00;99.90
2757;DHT22;1386;50.862;6.494;2023-09-18T04:29:24;20.00;99.90
2757;DHT22;1386;50.862;6.494;2023-09-18T04:31:51;20.00;99.90
2757;DHT22;1386;50.862;6.494;2023-09-18T04:34:21;20.10;99.90
2757;DHT22;1386;50.862;6.494;2023-09-18T04:36:48;20.10;99.90
2757;DHT22;1386;50.862;6.494;2023-09-18T04:39:15;20.10;99.90
2757;DHT22;1386;50.862;6.494;2023-09-18T04:41:41;20.10;99.90
2757;DHT22;1386;50.862;6.494;2023-09-18T04:44:08;20.10;99.90
2757;DHT22;1386;50.862;6.494;2023-09-18T04:46:38;20.10;99.90
2757;DHT22;1386;50.862;6.494;2023-09-18T04:49:07;20.10;99.90
2757;DHT22;1386;50.862;6.494;2023-09-18T04:51:37;20.10;99.90
2757;DHT22;1386;50.862;6.494;2023-09-18T04:54:05;20.10;99.90
2757;DHT22;1386;50.862;6.494;2023-09-18T04:56:32;20.10;99.90
2757;DHT22;1386;50.862;6.494;2023-09-18T04:58:59;20.10;99.90
2757;DHT22;1386;50.862;6.494;2023-09-18T05:01:26;20.10;99.90
2757;DHT22;1386;50.862;6.494;2023-09-18T05:03:53;20.10;99.90
2757;DHT22;1386;50.862;6.494;2023-09-18T05:06:20;20.10;99.90
2757;DHT22;1386;50.862;6.494;2023-09-18T05:08:48;20.10;99.90
2757;DHT22;1386;50.862;6.494;2023-09-18T05:11:15;20.10;99.90
2757;DHT22;1386;50.862;6.494;2023-09-18T05:13:44;20.10;99.90
2757;DHT22;1386;50.862;6.494;2023-09-18T05:16:11;20.00;99.90
2757;DHT22;1386;50.862;6.494;2023-09-18T05:18:39;20.00;99.90
2757;DHT22;1386;50.862;6.494;2023-09-18T05:21:06;20.00;99.90
2757;DHT22;1386;50.862;6.494;2023-09-18T05:23:34;20.00;99.90
2757;DHT22;1386;50.862;6.494;2023-09-18T05:26:03;20.00;99.90
2757;DHT22;1386;50.862;6.494;2023-09-18T05:28:30;20.00;99.90
2757;DHT22;1386;50.862;6.494;2023-09-18T05:30:57;20.00;99.90
2757;DHT22;1386;50.862;6.494;2023-09-18T05:33:24;20.00;99.90
2757;DHT22;1386;50.862;6.494;2023-09-18T05:35:51;20.00;99.90
2757;DHT22;1386;50.862;6.494;2023-09-18T05:38:18;20.00;99.90
2757;DHT22;1386;50.862;6.494;2023-09-18T05:40:44;20.00;99.90
2757;DHT22;1386;50.862;6.494;2023-09-18T05:43:14;20.00;99.90
2757;DHT22;1386;50.862;6.494;2023-09-18T05:45:40;20.10;99.90
2757;DHT22;1386;50.862;6.494;2023-09-18T05:48:07;20.00;99.90
2757;DHT22;1386;50.862;6.494;2023-09-18T05:50:35;20.00;99.90
2757;DHT22;1386;50.862;6.494;2023-09-18T05:53:02;20.00;99.90
2757;DHT22;1386;50.862;6.494;2023-09-18T05:55:30;20.00;99.90
2757;DHT22;1386;50.862;6.494;2023-09-18T05:57:58;20.00;99.90
2757;DHT22;1386;50.862;6.494;2023-09-18T06:00:26;20.00;99.90
2757;DHT22;1386;50.862;6.494;2023-09-18T06:02:53;20.10;99.90
2757;DHT22;1386;50.862;6.494;2023-09-18T06:05:20;20.00;99.90
2757;DHT22;1386;50.862;6.494;2023-09-18T06:07:48;20.00;99.90
2757;DHT22;1386;50.862;6.494;2023-09-18T06:10:15;20.00;99.90
2757;DHT22;1386;50.862;6.494;2023-09-18T06:12:43;20.00;99.90
2757;DHT22;1386;50.862;6.494;2023-09-18T06:15:10;20.00;99.90
2757;DHT22;1386;50.862;6.494;2023-09-18T06:17:40;20.10;99.90
2757;DHT22;1386;50.862;6.494;2023-09-18T06:20:09;20.10;99.90
2757;DHT22;1386;50.862;6.494;2023-09-18T06:22:36;20.10;99.90
2757;DHT22;1386;50.862;6.494;2023-09-18T06:25:04;20.10;99.90
2757;DHT22;1386;50.862;6.494;2023-09-18T06:27:33;20.10;99.90
2757;DHT22;1386;50.862;6.494;2023-09-18T06:30:02;20.10;99.90
2757;DHT22;1386;50.862;6.494;2023-09-18T06:32:29;20.10;99.90
2757;DHT22;1386;50.862;6.494;2023-09-18T06:34:57;20.10;99.90
2757;DHT22;1386;50.862;6.494;2023-09-18T06:37:24;20.20;99.90
2757;DHT22;1386;50.862;6.494;2023-09-18T06:39:51;20.20;99.90
2757;DHT22;1386;50.862;6.494;2023-09-18T06:42:18;20.20;99.90
2757;DHT22;1386;50.862;6.494;2023-09-18T06:44:45;20.20;99.90
2757;DHT22;1386;50.862;6.494;2023-09-18T06:47:12;20.20;99.90
2757;DHT22;1386;50.862;6.494;2023-09-18T06:49:40;20.20;99.90
2757;DHT22;1386;50.862;6.494;2023-09-18T06:52:08;20.30;99.90
2757;DHT22;1386;50.862;6.494;2023-09-18T06:54:35;20.20;99.90
2757;DHT22;1386;50.862;6.494;2023-09-18T06:57:03;20.30;99.90
2757;DHT22;1386;50.862;6.494;2023-09-18T06:59:30;20.30;99.90
2757;DHT22;1386;50.862;6.494;2023-09-18T07:02:00;20.30;99.90
2757;DHT22;1386;50.862;6.494;2023-09-18T07:04:27;20.30;99.90
2757;DHT22;1386;50.862;6.494;2023-09-18T07:06:54;20.30;99.90
2757;DHT22;1386;50.862;6.494;2023-09-18T07:09:23;20.30;99.90
2757;DHT22;1386;50.862;6.494;2023-09-18T07:11:51;20.30;99.90
2757;DHT22;1386;50.862;6.494;2023-09-18T07:14:18;20.30;99.90
2757;DHT22;1386;50.862;6.494;2023-09-18T07:16:45;20.30;99.90
2757;DHT22;1386;50.862;6.494;2023-09-18T07:19:11;20.30;99.90
2757;DHT22;1386;50.862;6.494;2023-09-18T07:21:42;20.30;99.90
2757;DHT22;1386;50.862;6.494;2023-09-18T07:24:10;20.30;99.90
2757;DHT22;1386;50.862;6.494;2023-09-18T07:26:43;20.40;99.90
2757;DHT22;1386;50.862;6.494;2023-09-18T07:29:11;20.40;99.90
2757;DHT22;1386;50.862;6.494;2023-09-18T07:31:38;20.40;99.90
2757;DHT22;1386;50.862;6.494;2023-09-18T07:34:05;20.40;99.90
2757;DHT22;1386;50.862;6.494;2023-09-18T07:36:32;20.40;99.90
2757;DHT22;1386;50.862;6.494;2023-09-18T07:38:59;20.40;99.90
2757;DHT22;1386;50.862;6.494;2023-09-18T07:41:26;20.40;99.90
2757;DHT22;1386;50.862;6.494;2023-09-18T07:43:54;20.40;99.90
2757;DHT22;1386;50.862;6.494;2023-09-18T07:46:22;20.40;99.90
2757;DHT22;1386;50.862;6.494;2023-09-18T07:48:49;20.50;99.90
2757;DHT22;1386;50.862;6.494;2023-09-18T07:51:16;20.40;99.90
2757;DHT22;1386;50.862;6.494;2023-09-18T07:53:43;20.40;99.90
2757;DHT22;1386;50.862;6.494;2023-09-18T07:56:10;20.40;99.90
2757;DHT22;1386;50.862;6.494;2023-09-18T07:58:37;20.40;99.90
2757;DHT22;1386;50.862;6.494;2023-09-18T08:01:06;20.40;99.90
2757;DHT22;1386;50.862;6.494;2023-09-18T08:03:34;20.50;99.90
2757;DHT22;1386;50.862;6.494;2023-09-18T08:06:01;20.50;99.90
2757;DHT22;1386;50.862;6.494;2023-09-18T08:08:30;20.50;99.90
2757;DHT22;1386;50.862;6.494;2023-09-18T08:11:00;20.60;99.90
2757;DHT22;1386;50.862;6.494;2023-09-18T08:13:28;20.60;99.90
2757;DHT22;1386;50.862;6.494;2023-09-18T08:15:55;20.70;99.90
2757;DHT22;1386;50.862;6.494;2023-09-18T08:18:24;20.60;99.90
2757;DHT22;1386;50.862;6.494;2023-09-18T08:20:52;20.60;99.90
2757;DHT22;1386;50.862;6.494;2023-09-18T08:23:19;20.60;99.90
2757;DHT22;1386;50.862;6.494;2023-09-18T08:25:46;20.60;99.90
2757;DHT22;1386;50.862;6.494;2023-09-18T08:28:14;20.70;99.90
2757;DHT22;1386;50.862;6.494;2023-09-18T08:30:41;20.70;99.90
2757;DHT22;1386;50.862;6.494;2023-09-18T08:33:12;20.70;99.90
2757;DHT22;1386;50.862;6.494;2023-09-18T08:35:40;20.70;99.90
2757;DHT22;1386;50.862;6.494;2023-09-18T08:38:07;20.70;99.90
2757;DHT22;1386;50.862;6.494;2023-09-18T08:40:34;20.70;99.90
2757;DHT22;1386;50.862;6.494;2023-09-18T08:43:02;20.80;99.90
2757;DHT22;1386;50.862;6.494;2023-09-18T08:45:35;20.80;99.90
2757;DHT22;1386;50.862;6.494;2023-09-18T08:48:06;20.90;99.90
2757;DHT22;1386;50.862;6.494;2023-09-18T08:50:33;20.90;99.90
2757;DHT22;1386;50.862;6.494;2023-09-18T08:53:03;20.90;99.90
2757;DHT22;1386;50.862;6.494;2023-09-18T08:55:30;21.00;99.90
2757;DHT22;1386;50.862;6.494;2023-09-18T08:57:58;21.10;99.90
2757;DHT22;1386;50.862;6.494;2023-09-18T09:00:26;21.10;99.90
2757;DHT22;1386;50.862;6.494;2023-09-18T09:02:53;21.20;99.90
2757;DHT22;1386;50.862;6.494;2023-09-18T09:05:21;21.20;99.90
2757;DHT22;1386;50.862;6.494;2023-09-18T09:07:48;21.20;99.90
2757;DHT22;1386;50.862;6.494;2023-09-18T09:10:17;21.20;99.90
2757;DHT22;1386;50.862;6.494;2023-09-18T09:12:52;21.30;99.90
2757;DHT22;1386;50.862;6.494;2023-09-18T09:15:20;21.30;99.90
2757;DHT22;1386;50.862;6.494;2023-09-18T09:17:47;21.30;99.90
2757;DHT22;1386;50.862;6.494;2023-09-18T09:20:15;21.40;99.90
2757;DHT22;1386;50.862;6.494;2023-09-18T09:22:44;21.40;99.90
2757;DHT22;1386;50.862;6.494;2023-09-18T09:25:26;21.50;99.90
2757;DHT22;1386;50.862;6.494;2023-09-18T09:27:53;21.60;99.90
2757;DHT22;1386;50.862;6.494;2023-09-18T09:30:21;21.60;99.90
2757;DHT22;1386;50.862;6.494;2023-09-18T09:32:49;21.60;99.90
2757;DHT22;1386;50.862;6.494;2023-09-18T09:35:25;21.60;99.90
2757;DHT22;1386;50.862;6.494;2023-09-18T09:37:55;21.60;99.90
2757;DHT22;1386;50.862;6.494;2023-09-18T09:40:25;21.60;99.90
2757;DHT22;1386;50.862;6.494;2023-09-18T09:42:53;21.70;99.90
2757;DHT22;1386;50.862;6.494;2023-09-18T09:45:26;21.70;99.90
2757;DHT22;1386;50.862;6.494;2023-09-18T09:47:54;21.80;99.90
2757;DHT22;1386;50.862;6.494;2023-09-18T09:50:21;21.80;99.90
2757;DHT22;1386;50.862;6.494;2023-09-18T09:52:49;21.90;99.90
2757;DHT22;1386;50.862;6.494;2023-09-18T09:55:30;22.10;99.90
2757;DHT22;1386;50.862;6.494;2023-09-18T09:58:01;22.20;99.90
2757;DHT22;1386;50.862;6.494;2023-09-18T10:00:30;22.40;99.90
2757;DHT22;1386;50.862;6.494;2023-09-18T10:03:04;22.60;99.90
2757;DHT22;1386;50.862;6.494;2023-09-18T10:05:34;22.80;99.90
2757;DHT22;1386;50.862;6.494;2023-09-18T10:08:04;23.00;99.90
2757;DHT22;1386;50.862;6.494;2023-09-18T10:10:36;23.10;99.90
2757;DHT22;1386;50.862;6.494;2023-09-18T10:13:18;23.20;99.90
2757;DHT22;1386;50.862;6.494;2023-09-18T10:15:48;23.30;99.90
2757;DHT22;1386;50.862;6.494;2023-09-18T10:18:20;23.40;99.90
2757;DHT22;1386;50.862;6.494;2023-09-18T10:20:51;23.50;99.90
2757;DHT22;1386;50.862;6.494;2023-09-18T10:23:27;23.60;99.90
2757;DHT22;1386;50.862;6.494;2023-09-18T10:25:59;23.70;99.90
2757;DHT22;1386;50.862;6.494;2023-09-18T10:28:29;23.80;99.90
2757;DHT22;1386;50.862;6.494;2023-09-18T10:30:57;23.90;99.90
2757;DHT22;1386;50.862;6.494;2023-09-18T10:33:25;23.90;99.90
2757;DHT22;1386;50.862;6.494;2023-09-18T10:35:53;24.00;99.90
2757;DHT22;1386;50.862;6.494;2023-09-18T10:38:22;24.10;99.90
2757;DHT22;1386;50.862;6.494;2023-09-18T10:40:50;24.20;99.90
2757;DHT22;1386;50.862;6.494;2023-09-18T10:43:19;24.40;99.90
2757;DHT22;1386;50.862;6.494;2023-09-18T10:45:46;24.40;99.90
2757;DHT22;1386;50.862;6.494;2023-09-18T10:48:15;24.40;99.90
2757;DHT22;1386;50.862;6.494;2023-09-18T10:50:42;24.50;99.90
2757;DHT22;1386;50.862;6.494;2023-09-18T10:53:11;24.60;99.90
2757;DHT22;1386;50.862;6.494;2023-09-18T10:55:38;24.70;99.90
2757;DHT22;1386;50.862;6.494;2023-09-18T10:58:06;24.80;99.90
2757;DHT22;1386;50.862;6.494;2023-09-18T11:00:34;24.80;99.90
2757;DHT22;1386;50.862;6.494;2023-09-18T11:03:13;24.90;99.90
2757;DHT22;1386;50.862;6.494;2023-09-18T11:05:40;25.10;99.90
2757;DHT22;1386;50.862;6.494;2023-09-18T11:08:29;25.10;99.90
2757;DHT22;1386;50.862;6.494;2023-09-18T11:11:00;25.20;99.90
2757;DHT22;1386;50.862;6.494;2023-09-18T11:13:34;25.30;99.90
2757;DHT22;1386;50.862;6.494;2023-09-18T11:16:16;25.20;99.90
2757;DHT22;1386;50.862;6.494;2023-09-18T11:18:47;25.30;99.90
2757;DHT22;1386;50.862;6.494;2023-09-18T11:21:15;25.30;99.90
2757;DHT22;1386;50.862;6.494;2023-09-18T11:23:43;25.30;99.90
2757;DHT22;1386;50.862;6.494;2023-09-18T11:26:10;25.30;99.90
2757;DHT22;1386;50.862;6.494;2023-09-18T11:28:38;25.30;99.90
2757;DHT22;1386;50.862;6.494;2023-09-18T11:31:06;25.40;99.90
2757;DHT22;1386;50.862;6.494;2023-09-18T11:33:34;25.40;99.90
2757;DHT22;1386;50.862;6.494;2023-09-18T11:36:06;25.50;99.90
2757;DHT22;1386;50.862;6.494;2023-09-18T11:38:35;25.50;99.90
2757;DHT22;1386;50.862;6.494;2023-09-18T11:41:25;25.60;99.90
2757;DHT22;1386;50.862;6.494;2023-09-18T11:43:52;25.60;99.90
2757;DHT22;1386;50.862;6.494;2023-09-18T11:46:45;25.60;99.90
2757;DHT22;1386;50.862;6.494;2023-09-18T11:49:13;25.50;99.90
2757;DHT22;1386;50.862;6.494;2023-09-18T11:51:40;25.50;99.90
2757;DHT22;1386;50.862;6.494;2023-09-18T11:54:09;25.50;99.90
2757;DHT22;1386;50.862;6.494;2023-09-18T11:56:36;25.50;99.90
2757;DHT22;1386;50.862;6.494;2023-09-18T11:59:06;25.50;99.90
2757;DHT22;1386;50.862;6.494;2023-09-18T12:01:34;25.70;99.90
2757;DHT22;1386;50.862;6.494;2023-09-18T12:04:04;25.90;99.90
2757;DHT22;1386;50.862;6.494;2023-09-18T12:06:33;26.00;99.90
2757;DHT22;1386;50.862;6.494;2023-09-18T12:09:00;25.90;99.90
2757;DHT22;1386;50.862;6.494;2023-09-18T12:11:27;25.90;99.90
2757;DHT22;1386;50.862;6.494;2023-09-18T12:13:54;25.80;99.90
2757;DHT22;1386;50.862;6.494;2023-09-18T12:16:21;25.70;99.90
2757;DHT22;1386;50.862;6.494;2023-09-18T12:18:48;25.50;99.90
2757;DHT22;1386;50.862;6.494;2023-09-18T12:21:17;25.60;99.90
2757;DHT22;1386;50.862;6.494;2023-09-18T12:23:45;25.60;99.90
2757;DHT22;1386;50.862;6.494;2023-09-18T12:26:13;25.60;99.90
2757;DHT22;1386;50.862;6.494;2023-09-18T12:28:41;25.70;99.90
2757;DHT22;1386;50.862;6.494;2023-09-18T12:31:10;25.70;99.90
2757;DHT22;1386;50.862;6.494;2023-09-18T12:33:38;25.60;99.90
2757;DHT22;1386;50.862;6.494;2023-09-18T12:36:07;25.50;99.90
2757;DHT22;1386;50.862;6.494;2023-09-18T12:38:37;25.40;99.90
2757;DHT22;1386;50.862;6.494;2023-09-18T12:41:05;25.50;99.90
2757;DHT22;1386;50.862;6.494;2023-09-18T12:43:37;25.50;99.90
2757;DHT22;1386;50.862;6.494;2023-09-18T12:46:05;25.50;99.90
2757;DHT22;1386;50.862;6.494;2023-09-18T12:48:37;25.50;99.90
2757;DHT22;1386;50.862;6.494;2023-09-18T12:51:04;25.50;99.90
2757;DHT22;1386;50.862;6.494;2023-09-18T12:53:31;25.40;99.90
2757;DHT22;1386;50.862;6.494;2023-09-18T12:56:11;25.30;99.90
2757;DHT22;1386;50.862;6.494;2023-09-18T12:58:38;25.20;99.90
2757;DHT22;1386;50.862;6.494;2023-09-18T13:01:06;25.20;99.90
2757;DHT22;1386;50.862;6.494;2023-09-18T13:03:35;25.30;99.90
2757;DHT22;1386;50.862;6.494;2023-09-18T13:06:10;25.30;99.90
2757;DHT22;1386;50.862;6.494;2023-09-18T13:08:37;25.20;99.90
2757;DHT22;1386;50.862;6.494;2023-09-18T13:11:04;25.10;99.90
2757;DHT22;1386;50.862;6.494;2023-09-18T13:13:33;24.90;99.90
2757;DHT22;1386;50.862;6.494;2023-09-18T13:16:04;24.90;99.90
2757;DHT22;1386;50.862;6.494;2023-09-18T13:18:34;25.00;99.90
2757;DHT22;1386;50.862;6.494;2023-09-18T13:21:09;24.90;99.90
2757;DHT22;1386;50.862;6.494;2023-09-18T13:23:36;24.90;99.90
2757;DHT22;1386;50.862;6.494;2023-09-18T13:26:04;24.90;99.90
2757;DHT22;1386;50.862;6.494;2023-09-18T13:28:36;25.10;99.90
2757;DHT22;1386;50.862;6.494;2023-09-18T13:31:05;25.20;99.90
2757;DHT22;1386;50.862;6.494;2023-09-18T13:33:33;25.20;99.90
2757;DHT22;1386;50.862;6.494;2023-09-18T13:36:00;25.20;99.90
2757;DHT22;1386;50.862;6.494;2023-09-18T13:38:30;25.20;99.90
2757;DHT22;1386;50.862;6.494;2023-09-18T13:40:57;25.30;99.90
2757;DHT22;1386;50.862;6.494;2023-09-18T13:43:25;25.30;99.90
2757;DHT22;1386;50.862;6.494;2023-09-18T13:45:55;25.30;99.90
2757;DHT22;1386;50.862;6.494;2023-09-18T13:48:25;25.30;99.90
2757;DHT22;1386;50.862;6.494;2023-09-18T13:50:54;25.30;99.90
2757;DHT22;1386;50.862;6.494;2023-09-18T13:53:22;25.30;99.90
2757;DHT22;1386;50.862;6.494;2023-09-18T13:55:54;25.30;99.90
2757;DHT22;1386;50.862;6.494;2023-09-18T13:58:24;25.20;99.90
2757;DHT22;1386;50.862;6.494;2023-09-18T14:00:51;25.20;99.90
2757;DHT22;1386;50.862;6.494;2023-09-18T14:03:20;25.10;99.90
2757;DHT22;1386;50.862;6.494;2023-09-18T14:05:47;25.00;99.90
2757;DHT22;1386;50.862;6.494;2023-09-18T14:08:14;25.10;99.90
2757;DHT22;1386;50.862;6.494;2023-09-18T14:10:42;25.10;99.90
2757;DHT22;1386;50.862;6.494;2023-09-18T14:13:09;25.20;99.90
2757;DHT22;1386;50.862;6.494;2023-09-18T14:15:36;25.20;99.90
2757;DHT22;1386;50.862;6.494;2023-09-18T14:18:04;25.10;99.90
2757;DHT22;1386;50.862;6.494;2023-09-18T14:20:33;25.10;99.90
2757;DHT22;1386;50.862;6.494;2023-09-18T14:22:59;25.10;99.90
2757;DHT22;1386;50.862;6.494;2023-09-18T14:25:29;25.10;99.90
2757;DHT22;1386;50.862;6.494;2023-09-18T14:27:55;25.00;99.90
2757;DHT22;1386;50.862;6.494;2023-09-18T14:30:22;24.80;99.90
2757;DHT22;1386;50.862;6.494;2023-09-18T14:32:55;24.80;99.90
2757;DHT22;1386;50.862;6.494;2023-09-18T14:35:22;24.80;99.90
2757;DHT22;1386;50.862;6.494;2023-09-18T14:37:50;24.80;99.90
2757;DHT22;1386;50.862;6.494;2023-09-18T14:40:17;24.70;99.90
2757;DHT22;1386;50.862;6.494;2023-09-18T14:42:48;24.70;99.90
2757;DHT22;1386;50.862;6.494;2023-09-18T14:45:15;24.70;99.90
2757;DHT22;1386;50.862;6.494;2023-09-18T14:47:42;24.70;99.90
2757;DHT22;1386;50.862;6.494;2023-09-18T14:50:09;24.70;99.90
2757;DHT22;1386;50.862;6.494;2023-09-18T14:52:36;24.60;99.90
2757;DHT22;1386;50.862;6.494;2023-09-18T14:55:05;24.70;99.90
2757;DHT22;1386;50.862;6.494;2023-09-18T14:57:32;24.70;99.90
2757;DHT22;1386;50.862;6.494;2023-09-18T14:59:59;24.70;99.90
2757;DHT22;1386;50.862;6.494;2023-09-18T15:02:26;24.60;99.90
2757;DHT22;1386;50.862;6.494;2023-09-18T15:04:57;24.60;99.90
2757;DHT22;1386;50.862;6.494;2023-09-18T15:07:24;24.50;99.90
2757;DHT22;1386;50.862;6.494;2023-09-18T15:09:51;24.50;99.90
2757;DHT22;1386;50.862;6.494;2023-09-18T15:12:19;24.40;99.90
2757;DHT22;1386;50.862;6.494;2023-09-18T15:14:46;24.30;99.90
2757;DHT22;1386;50.862;6.494;2023-09-18T15:17:13;24.20;99.90
2757;DHT22;1386;50.862;6.494;2023-09-18T15:19:40;24.20;99.90
2757;DHT22;1386;50.862;6.494;2023-09-18T15:22:08;24.20;99.90
2757;DHT22;1386;50.862;6.494;2023-09-18T15:24:38;24.20;99.90
2757;DHT22;1386;50.862;6.494;2023-09-18T15:27:05;24.20;99.90
2757;DHT22;1386;50.862;6.494;2023-09-18T15:29:34;24.20;99.90
2757;DHT22;1386;50.862;6.494;2023-09-18T15:32:00;24.20;99.90
2757;DHT22;1386;50.862;6.494;2023-09-18T15:34:28;24.20;99.90
2757;DHT22;1386;50.862;6.494;2023-09-18T15:36:57;24.30;99.90
2757;DHT22;1386;50.862;6.494;2023-09-18T15:39:29;24.20;99.90
2757;DHT22;1386;50.862;6.494;2023-09-18T15:41:58;24.20;99.90
2757;DHT22;1386;50.862;6.494;2023-09-18T15:44:25;24.20;99.90
2757;DHT22;1386;50.862;6.494;2023-09-18T15:46:53;24.20;99.90
2757;DHT22;1386;50.862;6.494;2023-09-18T15:49:20;24.20;99.90
2757;DHT22;1386;50.862;6.494;2023-09-18T15:51:47;24.20;99.90
2757;DHT22;1386;50.862;6.494;2023-09-18T15:54:14;24.20;99.90
2757;DHT22;1386;50.862;6.494;2023-09-18T15:56:42;24.20;99.90
2757;DHT22;1386;50.862;6.494;2023-09-18T15:59:09;24.20;99.90
2757;DHT22;1386;50.862;6.494;2023-09-18T16:01:37;24.20;99.90
2757;DHT22;1386;50.862;6.494;2023-09-18T16:07:30;24.10;99.90
2757;DHT22;1386;50.862;6.494;2023-09-18T16:10:33;24.10;99.90
2757;DHT22;1386;50.862;6.494;2023-09-18T16:17:14;24.00;99.90